sensor_id;sensor_type;location;lat;lon;timestamp;pressure;altitude;pressure_sealevel;temperature;humidity
59686;BME280;45554;51.096;16.976;2022-07-29T00:04:15;100427.18;;;17.75;40.57
59686;BME280;45554;51.096;16.976;2022-07-29T00:06:49;100430.44;;;17.72;40.69
59686;BME280;45554;51.096;16.976;2022-07-29T00:09:30;100433.17;;;17.69;40.79
59686;BME280;45554;51.096;16.976;2022-07-29T00:12:20;100432.36;;;17.66;40.93
59686;BME280;45554;51.096;16.976;2022-07-29T00:14:56;100432.84;;;17.62;41.04
59686;BME280;45554;51.096;16.976;2022-07-29T00:17:29;100432.15;;;17.60;41.18
59686;BME280;45554;51.096;16.976;2022-07-29T00:19:59;100432.52;;;17.58;41.38
59686;BME280;45554;51.096;16.976;2022-07-29T00:22:29;100431.11;;;17.55;41.39
59686;BME280;45554;51.096;16.976;2022-07-29T00:24:58;100433.65;;;17.52;41.53
59686;BME280;45554;51.096;16.976;2022-07-29T00:27:27;100436.12;;;17.50;41.61
59686;BME280;45554;51.096;16.976;2022-07-29T00:29:56;100436.17;;;17.48;41.70
59686;BME280;45554;51.096;16.976;2022-07-29T00:32:24;100434.42;;;17.45;41.86
59686;BME280;45554;51.096;16.976;2022-07-29T00:34:53;100432.14;;;17.42;42.00
59686;BME280;45554;51.096;16.976;2022-07-29T00:37:39;100428.54;;;17.39;42.08
59686;BME280;45554;51.096;16.976;2022-07-29T00:40:08;100426.43;;;17.37;42.15
59686;BME280;45554;51.096;16.976;2022-07-29T00:42:50;100417.55;;;17.32;42.28
59686;BME280;45554;51.096;16.976;2022-07-29T00:45:19;100422.34;;;17.30;42.46
59686;BME280;45554;51.096;16.976;2022-07-29T00:47:49;100427.73;;;17.27;42.57
59686;BME280;45554;51.096;16.976;2022-07-29T00:50:18;100427.41;;;17.24;42.62
59686;BME280;45554;51.096;16.976;2022-07-29T00:52:47;100424.79;;;17.22;42.69
59686;BME280;45554;51.096;16.976;2022-07-29T00:55:15;100420.02;;;17.20;42.71
59686;BME280;45554;51.096;16.976;2022-07-29T00:57:45;100423.02;;;17.18;42.84
59686;BME280;45554;51.096;16.976;2022-07-29T01:00:17;100422.55;;;17.14;42.90
59686;BME280;45554;51.096;16.976;2022-07-29T01:02:46;100415.40;;;17.12;43.02
59686;BME280;45554;51.096;16.976;2022-07-29T01:05:21;100424.95;;;17.11;43.18
59686;BME280;45554;51.096;16.976;2022-07-29T01:07:53;100425.30;;;17.09;43.31
59686;BME280;45554;51.096;16.976;2022-07-29T01:10:22;100420.60;;;17.06;43.35
59686;BME280;45554;51.096;16.976;2022-07-29T01:12:52;100417.08;;;17.03;43.43
59686;BME280;45554;51.096;16.976;2022-07-29T01:15:23;100422.23;;;17.00;43.54
59686;BME280;45554;51.096;16.976;2022-07-29T01:18:04;100423.20;;;16.97;43.60
59686;BME280;45554;51.096;16.976;2022-07-29T01:23:29;100423.96;;;16.89;43.83
59686;BME280;45554;51.096;16.976;2022-07-29T01:26:23;100422.64;;;16.86;43.93
59686;BME280;45554;51.096;16.976;2022-07-29T01:29:06;100421.78;;;16.81;44.19
59686;BME280;45554;51.096;16.976;2022-07-29T01:31:44;100417.17;;;16.77;44.25
59686;BME280;45554;51.096;16.976;2022-07-29T01:39:56;100413.08;;;16.64;44.68
59686;BME280;45554;51.096;16.976;2022-07-29T01:42:35;100416.09;;;16.56;45.11
59686;BME280;45554;51.096;16.976;2022-07-29T01:47:43;100415.65;;;16.43;45.47
59686;BME280;45554;51.096;16.976;2022-07-29T01:50:16;100408.66;;;16.38;45.61
59686;BME280;45554;51.096;16.976;2022-07-29T01:52:56;100409.59;;;16.30;45.81
59686;BME280;45554;51.096;16.976;2022-07-29T01:55:28;100409.44;;;16.23;46.01
59686;BME280;45554;51.096;16.976;2022-07-29T01:57:58;100410.51;;;16.16;46.24
59686;BME280;45554;51.096;16.976;2022-07-29T02:00:28;100406.95;;;16.09;46.37
59686;BME280;45554;51.096;16.976;2022-07-29T02:03:04;100398.39;;;16.03;46.60
59686;BME280;45554;51.096;16.976;2022-07-29T02:05:35;100399.90;;;16.00;46.67
59686;BME280;45554;51.096;16.976;2022-07-29T02:08:04;100396.84;;;15.96;46.87
59686;BME280;45554;51.096;16.976;2022-07-29T02:10:34;100398.97;;;15.94;46.93
59686;BME280;45554;51.096;16.976;2022-07-29T02:13:03;100394.56;;;15.91;47.01
59686;BME280;45554;51.096;16.976;2022-07-29T02:15:34;100390.10;;;15.88;47.12
59686;BME280;45554;51.096;16.976;2022-07-29T02:18:11;100389.84;;;15.87;47.19
59686;BME280;45554;51.096;16.976;2022-07-29T02:20:51;100390.88;;;15.85;47.22
59686;BME280;45554;51.096;16.976;2022-07-29T02:23:23;100385.79;;;15.83;47.34
59686;BME280;45554;51.096;16.976;2022-07-29T02:25:54;100386.89;;;15.79;47.46
59686;BME280;45554;51.096;16.976;2022-07-29T02:28:26;100385.29;;;15.77;47.68
59686;BME280;45554;51.096;16.976;2022-07-29T02:30:58;100389.77;;;15.74;47.72
59686;BME280;45554;51.096;16.976;2022-07-29T02:33:29;100392.30;;;15.73;47.84
59686;BME280;45554;51.096;16.976;2022-07-29T02:35:59;100391.02;;;15.72;48.03
59686;BME280;45554;51.096;16.976;2022-07-29T02:38:30;100396.42;;;15.70;48.07
59686;BME280;45554;51.096;16.976;2022-07-29T02:41:23;100395.23;;;15.69;48.28
59686;BME280;45554;51.096;16.976;2022-07-29T02:43:56;100392.42;;;15.67;48.25
59686;BME280;45554;51.096;16.976;2022-07-29T02:46:31;100396.63;;;15.65;48.31
59686;BME280;45554;51.096;16.976;2022-07-29T02:49:10;100399.58;;;15.63;48.44
59686;BME280;45554;51.096;16.976;2022-07-29T02:51:44;100401.27;;;15.62;48.63
59686;BME280;45554;51.096;16.976;2022-07-29T02:54:26;100399.09;;;15.60;48.68
59686;BME280;45554;51.096;16.976;2022-07-29T02:56:59;100394.34;;;15.58;48.77
59686;BME280;45554;51.096;16.976;2022-07-29T02:59:30;100394.73;;;15.55;48.88
59686;BME280;45554;51.096;16.976;2022-07-29T03:02:02;100393.95;;;15.54;49.09
59686;BME280;45554;51.096;16.976;2022-07-29T03:04:33;100393.92;;;15.51;49.11
59686;BME280;45554;51.096;16.976;2022-07-29T03:07:03;100396.39;;;15.49;49.24
59686;BME280;45554;51.096;16.976;2022-07-29T03:09:31;100400.31;;;15.46;49.30
59686;BME280;45554;51.096;16.976;2022-07-29T03:12:00;100400.88;;;15.43;49.48
59686;BME280;45554;51.096;16.976;2022-07-29T03:14:28;100399.44;;;15.41;49.70
59686;BME280;45554;51.096;16.976;2022-07-29T03:16:57;100402.71;;;15.37;49.72
59686;BME280;45554;51.096;16.976;2022-07-29T03:19:27;100402.95;;;15.34;49.96
59686;BME280;45554;51.096;16.976;2022-07-29T03:21:56;100404.51;;;15.32;49.99
59686;BME280;45554;51.096;16.976;2022-07-29T03:24:26;100404.46;;;15.30;50.19
59686;BME280;45554;51.096;16.976;2022-07-29T03:26:55;100403.66;;;15.29;50.16
59686;BME280;45554;51.096;16.976;2022-07-29T03:29:24;100408.38;;;15.30;50.37
59686;BME280;45554;51.096;16.976;2022-07-29T03:32:03;100408.56;;;15.30;50.45
59686;BME280;45554;51.096;16.976;2022-07-29T03:34:36;100409.11;;;15.29;50.55
59686;BME280;45554;51.096;16.976;2022-07-29T03:37:06;100405.05;;;15.27;50.53
59686;BME280;45554;51.096;16.976;2022-07-29T03:39:40;100411.88;;;15.30;50.62
59686;BME280;45554;51.096;16.976;2022-07-29T03:42:11;100410.45;;;15.33;50.68
59686;BME280;45554;51.096;16.976;2022-07-29T03:44:44;100411.39;;;15.39;50.57
59686;BME280;45554;51.096;16.976;2022-07-29T03:47:14;100417.34;;;15.45;50.69
59686;BME280;45554;51.096;16.976;2022-07-29T03:49:44;100415.04;;;15.48;50.64
59686;BME280;45554;51.096;16.976;2022-07-29T03:52:14;100415.84;;;15.51;50.61
59686;BME280;45554;51.096;16.976;2022-07-29T03:54:42;100417.08;;;15.54;50.55
59686;BME280;45554;51.096;16.976;2022-07-29T03:57:11;100419.73;;;15.56;50.60
59686;BME280;45554;51.096;16.976;2022-07-29T03:59:41;100422.08;;;15.57;50.64
59686;BME280;45554;51.096;16.976;2022-07-29T04:02:11;100422.39;;;15.61;50.64
59686;BME280;45554;51.096;16.976;2022-07-29T04:04:45;100419.17;;;15.63;50.67
59686;BME280;45554;51.096;16.976;2022-07-29T04:07:13;100419.12;;;15.67;50.73
59686;BME280;45554;51.096;16.976;2022-07-29T04:09:42;100421.79;;;15.71;50.57
59686;BME280;45554;51.096;16.976;2022-07-29T04:12:11;100416.56;;;15.75;50.65
59686;BME280;45554;51.096;16.976;2022-07-29T04:14:39;100418.55;;;15.79;50.55
59686;BME280;45554;51.096;16.976;2022-07-29T04:17:07;100417.03;;;15.85;50.56
59686;BME280;45554;51.096;16.976;2022-07-29T04:19:35;100413.83;;;15.90;50.52
59686;BME280;45554;51.096;16.976;2022-07-29T04:22:04;100415.01;;;15.96;50.48
59686;BME280;45554;51.096;16.976;2022-07-29T04:24:34;100416.03;;;16.04;50.47
59686;BME280;45554;51.096;16.976;2022-07-29T04:27:05;100411.73;;;16.14;50.31
59686;BME280;45554;51.096;16.976;2022-07-29T04:29:33;100410.59;;;16.24;50.21
59686;BME280;45554;51.096;16.976;2022-07-29T04:32:01;100410.89;;;16.34;50.15
59686;BME280;45554;51.096;16.976;2022-07-29T04:34:29;100409.64;;;16.43;49.94
59686;BME280;45554;51.096;16.976;2022-07-29T04:36:56;100403.30;;;16.55;49.80
59686;BME280;45554;51.096;16.976;2022-07-29T04:39:25;100403.71;;;16.65;49.60
59686;BME280;45554;51.096;16.976;2022-07-29T04:41:57;100402.60;;;16.77;49.42
59686;BME280;45554;51.096;16.976;2022-07-29T04:44:25;100401.95;;;16.90;49.19
59686;BME280;45554;51.096;16.976;2022-07-29T04:46:56;100405.90;;;17.03;49.02
59686;BME280;45554;51.096;16.976;2022-07-29T04:49:25;100405.63;;;17.15;48.97
59686;BME280;45554;51.096;16.976;2022-07-29T04:51:54;100404.97;;;17.28;48.57
59686;BME280;45554;51.096;16.976;2022-07-29T04:54:22;100399.11;;;17.39;48.41
59686;BME280;45554;51.096;16.976;2022-07-29T04:56:52;100402.15;;;17.54;48.32
59686;BME280;45554;51.096;16.976;2022-07-29T04:59:20;100404.95;;;17.67;47.96
59686;BME280;45554;51.096;16.976;2022-07-29T05:01:49;100407.27;;;17.78;47.76
59686;BME280;45554;51.096;16.976;2022-07-29T05:04:17;100403.00;;;17.87;47.53
59686;BME280;45554;51.096;16.976;2022-07-29T05:06:47;100402.19;;;17.96;47.36
59686;BME280;45554;51.096;16.976;2022-07-29T05:09:15;100401.84;;;18.05;47.20
59686;BME280;45554;51.096;16.976;2022-07-29T05:11:44;100403.90;;;18.15;47.02
59686;BME280;45554;51.096;16.976;2022-07-29T05:14:11;100403.79;;;18.22;46.75
59686;BME280;45554;51.096;16.976;2022-07-29T05:16:42;100409.64;;;18.29;46.65
59686;BME280;45554;51.096;16.976;2022-07-29T05:19:11;100409.74;;;18.33;46.43
59686;BME280;45554;51.096;16.976;2022-07-29T05:21:41;100410.29;;;18.40;46.45
59686;BME280;45554;51.096;16.976;2022-07-29T05:24:09;100408.60;;;18.47;46.10
59686;BME280;45554;51.096;16.976;2022-07-29T05:26:37;100404.33;;;18.56;46.04
59686;BME280;45554;51.096;16.976;2022-07-29T05:29:05;100404.58;;;18.63;46.00
59686;BME280;45554;51.096;16.976;2022-07-29T05:31:54;100408.77;;;18.70;45.80
59686;BME280;45554;51.096;16.976;2022-07-29T05:34:22;100410.36;;;18.76;45.77
59686;BME280;45554;51.096;16.976;2022-07-29T05:36:50;100408.39;;;18.80;45.54
59686;BME280;45554;51.096;16.976;2022-07-29T05:39:19;100401.66;;;18.82;45.44
59686;BME280;45554;51.096;16.976;2022-07-29T05:41:48;100400.73;;;18.84;45.31
59686;BME280;45554;51.096;16.976;2022-07-29T05:44:19;100397.28;;;18.87;45.35
59686;BME280;45554;51.096;16.976;2022-07-29T05:46:52;100397.88;;;18.89;45.30
59686;BME280;45554;51.096;16.976;2022-07-29T05:49:24;100398.55;;;18.89;45.19
59686;BME280;45554;51.096;16.976;2022-07-29T05:51:54;100402.92;;;18.92;45.22
59686;BME280;45554;51.096;16.976;2022-07-29T05:54:22;100401.96;;;18.95;45.21
59686;BME280;45554;51.096;16.976;2022-07-29T05:56:50;100405.59;;;19.00;45.17
59686;BME280;45554;51.096;16.976;2022-07-29T05:59:18;100409.72;;;19.06;45.05
59686;BME280;45554;51.096;16.976;2022-07-29T06:01:47;100409.02;;;19.08;45.00
59686;BME280;45554;51.096;16.976;2022-07-29T06:04:15;100407.27;;;19.12;44.82
59686;BME280;45554;51.096;16.976;2022-07-29T06:06:44;100410.05;;;19.16;44.79
59686;BME280;45554;51.096;16.976;2022-07-29T06:09:13;100408.23;;;19.19;44.78
59686;BME280;45554;51.096;16.976;2022-07-29T06:11:41;100405.96;;;19.24;44.65
59686;BME280;45554;51.096;16.976;2022-07-29T06:14:09;100406.02;;;19.28;44.73
59686;BME280;45554;51.096;16.976;2022-07-29T06:16:37;100405.66;;;19.33;44.66
59686;BME280;45554;51.096;16.976;2022-07-29T06:19:05;100400.00;;;19.39;44.56
59686;BME280;45554;51.096;16.976;2022-07-29T06:21:36;100393.83;;;19.45;44.49
59686;BME280;45554;51.096;16.976;2022-07-29T06:24:09;100390.66;;;19.54;44.60
59686;BME280;45554;51.096;16.976;2022-07-29T06:26:42;100392.30;;;19.66;44.63
59686;BME280;45554;51.096;16.976;2022-07-29T06:29:11;100395.89;;;19.77;44.30
59686;BME280;45554;51.096;16.976;2022-07-29T06:31:39;100395.27;;;19.86;44.28
59686;BME280;45554;51.096;16.976;2022-07-29T06:34:07;100396.55;;;19.95;44.16
59686;BME280;45554;51.096;16.976;2022-07-29T06:36:36;100398.39;;;20.06;43.79
59686;BME280;45554;51.096;16.976;2022-07-29T06:39:05;100395.75;;;20.17;43.81
59686;BME280;45554;51.096;16.976;2022-07-29T06:41:35;100399.09;;;20.29;43.51
59686;BME280;45554;51.096;16.976;2022-07-29T06:44:10;100399.20;;;20.45;43.50
59686;BME280;45554;51.096;16.976;2022-07-29T06:46:38;100403.91;;;20.61;43.21
59686;BME280;45554;51.096;16.976;2022-07-29T06:49:06;100405.92;;;20.77;43.13
59686;BME280;45554;51.096;16.976;2022-07-29T06:51:35;100406.35;;;20.96;42.98
59686;BME280;45554;51.096;16.976;2022-07-29T06:54:04;100405.64;;;21.14;42.63
59686;BME280;45554;51.096;16.976;2022-07-29T06:56:34;100407.85;;;21.30;42.27
59686;BME280;45554;51.096;16.976;2022-07-29T06:59:09;100406.52;;;21.42;42.08
59686;BME280;45554;51.096;16.976;2022-07-29T07:01:39;100404.09;;;21.57;41.94
59686;BME280;45554;51.096;16.976;2022-07-29T07:04:09;100400.51;;;21.72;41.72
59686;BME280;45554;51.096;16.976;2022-07-29T07:06:38;100401.05;;;21.86;41.42
59686;BME280;45554;51.096;16.976;2022-07-29T07:09:06;100398.54;;;21.99;41.34
59686;BME280;45554;51.096;16.976;2022-07-29T07:11:34;100400.22;;;22.16;41.17
59686;BME280;45554;51.096;16.976;2022-07-29T07:14:02;100396.48;;;22.31;40.82
59686;BME280;45554;51.096;16.976;2022-07-29T07:16:31;100394.11;;;22.48;40.81
59686;BME280;45554;51.096;16.976;2022-07-29T07:19:00;100393.08;;;22.63;40.30
59686;BME280;45554;51.096;16.976;2022-07-29T07:21:28;100393.91;;;22.79;40.28
59686;BME280;45554;51.096;16.976;2022-07-29T07:23:58;100393.69;;;22.95;40.13
59686;BME280;45554;51.096;16.976;2022-07-29T07:26:27;100385.31;;;23.13;39.83
59686;BME280;45554;51.096;16.976;2022-07-29T07:28:56;100386.81;;;23.33;39.63
59686;BME280;45554;51.096;16.976;2022-07-29T07:31:24;100379.09;;;23.54;39.19
59686;BME280;45554;51.096;16.976;2022-07-29T07:33:53;100379.38;;;23.71;38.99
59686;BME280;45554;51.096;16.976;2022-07-29T07:36:22;100378.30;;;23.82;38.41
59686;BME280;45554;51.096;16.976;2022-07-29T07:38:50;100380.92;;;23.94;38.34
59686;BME280;45554;51.096;16.976;2022-07-29T07:41:18;100379.14;;;24.04;38.04
59686;BME280;45554;51.096;16.976;2022-07-29T07:43:46;100376.42;;;24.11;38.14
59686;BME280;45554;51.096;16.976;2022-07-29T07:46:14;100372.90;;;24.12;37.82
59686;BME280;45554;51.096;16.976;2022-07-29T07:48:43;100370.46;;;24.16;37.73
59686;BME280;45554;51.096;16.976;2022-07-29T07:51:11;100371.04;;;24.16;37.55
59686;BME280;45554;51.096;16.976;2022-07-29T07:53:39;100376.64;;;24.19;37.59
59686;BME280;45554;51.096;16.976;2022-07-29T07:56:07;100379.98;;;24.24;37.62
59686;BME280;45554;51.096;16.976;2022-07-29T07:58:39;100375.00;;;24.31;37.79
59686;BME280;45554;51.096;16.976;2022-07-29T08:01:07;100374.56;;;24.37;37.61
59686;BME280;45554;51.096;16.976;2022-07-29T08:03:36;100372.56;;;24.43;37.54
59686;BME280;45554;51.096;16.976;2022-07-29T08:06:05;100371.16;;;24.44;37.27
59686;BME280;45554;51.096;16.976;2022-07-29T08:08:33;100373.98;;;24.43;37.08
59686;BME280;45554;51.096;16.976;2022-07-29T08:11:01;100376.23;;;24.40;37.20
59686;BME280;45554;51.096;16.976;2022-07-29T08:13:37;100376.20;;;24.42;37.32
59686;BME280;45554;51.096;16.976;2022-07-29T08:16:07;100373.77;;;24.51;37.32
59686;BME280;45554;51.096;16.976;2022-07-29T08:18:44;100372.03;;;24.60;37.25
59686;BME280;45554;51.096;16.976;2022-07-29T08:21:14;100361.77;;;24.67;37.18
59686;BME280;45554;51.096;16.976;2022-07-29T08:23:45;100370.23;;;24.83;36.76
59686;BME280;45554;51.096;16.976;2022-07-29T08:26:28;100373.48;;;24.89;36.60
59686;BME280;45554;51.096;16.976;2022-07-29T08:28:55;100379.49;;;24.96;36.71
59686;BME280;45554;51.096;16.976;2022-07-29T08:31:23;100373.84;;;25.08;36.59
59686;BME280;45554;51.096;16.976;2022-07-29T08:33:51;100373.33;;;25.23;36.40
59686;BME280;45554;51.096;16.976;2022-07-29T08:36:19;100370.48;;;25.40;36.35
59686;BME280;45554;51.096;16.976;2022-07-29T08:38:48;100372.16;;;25.53;36.07
59686;BME280;45554;51.096;16.976;2022-07-29T08:41:20;100371.72;;;25.63;35.89
59686;BME280;45554;51.096;16.976;2022-07-29T08:43:49;100373.42;;;25.72;35.69
59686;BME280;45554;51.096;16.976;2022-07-29T08:46:18;100371.09;;;25.73;35.60
59686;BME280;45554;51.096;16.976;2022-07-29T08:48:47;100373.52;;;25.77;35.58
59686;BME280;45554;51.096;16.976;2022-07-29T08:51:22;100362.00;;;25.77;35.54
59686;BME280;45554;51.096;16.976;2022-07-29T08:53:55;100370.38;;;25.92;35.49
59686;BME280;45554;51.096;16.976;2022-07-29T08:56:23;100368.65;;;25.96;35.15
59686;BME280;45554;51.096;16.976;2022-07-29T08:58:53;100365.55;;;25.95;35.34
59686;BME280;45554;51.096;16.976;2022-07-29T09:01:27;100363.70;;;25.92;35.27
59686;BME280;45554;51.096;16.976;2022-07-29T09:04:06;100363.03;;;25.93;35.45
59686;BME280;45554;51.096;16.976;2022-07-29T09:06:43;100358.95;;;25.94;35.32
59686;BME280;45554;51.096;16.976;2022-07-29T09:09:12;100359.69;;;26.00;35.34
59686;BME280;45554;51.096;16.976;2022-07-29T09:11:41;100354.22;;;26.08;35.29
59686;BME280;45554;51.096;16.976;2022-07-29T09:14:11;100352.02;;;26.22;35.10
59686;BME280;45554;51.096;16.976;2022-07-29T09:16:48;100354.17;;;26.34;34.87
59686;BME280;45554;51.096;16.976;2022-07-29T09:19:29;100349.80;;;26.42;34.86
59686;BME280;45554;51.096;16.976;2022-07-29T09:21:58;100349.17;;;26.52;34.60
59686;BME280;45554;51.096;16.976;2022-07-29T09:24:41;100345.05;;;26.61;34.58
59686;BME280;45554;51.096;16.976;2022-07-29T09:27:23;100343.27;;;26.68;34.22
59686;BME280;45554;51.096;16.976;2022-07-29T09:30:02;100345.72;;;26.76;34.17
59686;BME280;45554;51.096;16.976;2022-07-29T09:32:33;100344.33;;;26.92;34.07
59686;BME280;45554;51.096;16.976;2022-07-29T09:35:21;100339.56;;;27.09;34.07
59686;BME280;45554;51.096;16.976;2022-07-29T09:37:51;100338.23;;;27.27;33.66
59686;BME280;45554;51.096;16.976;2022-07-29T09:40:21;100342.81;;;27.42;33.45
59686;BME280;45554;51.096;16.976;2022-07-29T09:42:50;100332.02;;;27.52;33.34
59686;BME280;45554;51.096;16.976;2022-07-29T09:45:32;100329.30;;;27.61;33.28
59686;BME280;45554;51.096;16.976;2022-07-29T09:48:18;100330.05;;;27.74;32.96
59686;BME280;45554;51.096;16.976;2022-07-29T09:50:47;100328.87;;;27.86;32.93
59686;BME280;45554;51.096;16.976;2022-07-29T09:53:43;100329.66;;;28.00;32.80
59686;BME280;45554;51.096;16.976;2022-07-29T09:56:15;100323.42;;;28.20;32.80
59686;BME280;45554;51.096;16.976;2022-07-29T09:58:43;100318.95;;;28.31;32.32
59686;BME280;45554;51.096;16.976;2022-07-29T10:01:13;100320.88;;;28.37;32.29
59686;BME280;45554;51.096;16.976;2022-07-29T10:03:51;100320.11;;;28.43;32.26
59686;BME280;45554;51.096;16.976;2022-07-29T10:06:19;100317.13;;;28.55;32.40
59686;BME280;45554;51.096;16.976;2022-07-29T10:08:49;100318.55;;;28.64;32.06
59686;BME280;45554;51.096;16.976;2022-07-29T10:11:17;100318.78;;;28.72;31.99
59686;BME280;45554;51.096;16.976;2022-07-29T10:13:48;100316.11;;;28.71;31.63
59686;BME280;45554;51.096;16.976;2022-07-29T10:16:16;100311.67;;;28.72;31.53
59686;BME280;45554;51.096;16.976;2022-07-29T10:18:44;100311.66;;;28.70;31.79
59686;BME280;45554;51.096;16.976;2022-07-29T10:21:14;100310.75;;;28.70;31.77
59686;BME280;45554;51.096;16.976;2022-07-29T10:24:03;100308.01;;;28.69;31.43
59686;BME280;45554;51.096;16.976;2022-07-29T10:26:32;100310.38;;;28.69;31.44
59686;BME280;45554;51.096;16.976;2022-07-29T10:29:02;100305.36;;;28.76;31.73
59686;BME280;45554;51.096;16.976;2022-07-29T10:31:42;100302.35;;;28.83;31.73
59686;BME280;45554;51.096;16.976;2022-07-29T10:34:25;100302.16;;;28.86;31.44
59686;BME280;45554;51.096;16.976;2022-07-29T10:43:16;100303.48;;;28.86;31.31
59686;BME280;45554;51.096;16.976;2022-07-29T10:46:06;100298.21;;;28.95;31.16
59686;BME280;45554;51.096;16.976;2022-07-29T10:48:35;100298.67;;;29.00;31.12
59686;BME280;45554;51.096;16.976;2022-07-29T10:51:05;100304.23;;;29.08;30.92
59686;BME280;45554;51.096;16.976;2022-07-29T10:53:52;100296.58;;;29.22;30.88
59686;BME280;45554;51.096;16.976;2022-07-29T10:56:25;100292.56;;;29.37;30.59
59686;BME280;45554;51.096;16.976;2022-07-29T11:01:52;100287.23;;;29.66;30.39
59686;BME280;45554;51.096;16.976;2022-07-29T11:07:13;100285.35;;;29.87;30.11
59686;BME280;45554;51.096;16.976;2022-07-29T11:12:47;100281.20;;;30.03;29.94
59686;BME280;45554;51.096;16.976;2022-07-29T11:15:17;100278.73;;;30.07;29.71
59686;BME280;45554;51.096;16.976;2022-07-29T11:20:50;100281.16;;;30.30;29.73
59686;BME280;45554;51.096;16.976;2022-07-29T11:23:34;100283.06;;;30.39;29.47
59686;BME280;45554;51.096;16.976;2022-07-29T11:26:13;100280.32;;;30.54;29.60
59686;BME280;45554;51.096;16.976;2022-07-29T11:31:20;100283.68;;;30.74;29.13
59686;BME280;45554;51.096;16.976;2022-07-29T11:39:41;100293.44;;;30.71;28.87
59686;BME280;45554;51.096;16.976;2022-07-29T11:47:56;100288.39;;;30.43;28.67
59686;BME280;45554;51.096;16.976;2022-07-29T11:50:48;100286.63;;;30.46;28.72
59686;BME280;45554;51.096;16.976;2022-07-29T11:53:16;100285.56;;;30.57;28.69
59686;BME280;45554;51.096;16.976;2022-07-29T11:55:45;100280.41;;;30.53;28.48
59686;BME280;45554;51.096;16.976;2022-07-29T11:58:22;100289.10;;;30.51;28.42
59686;BME280;45554;51.096;16.976;2022-07-29T12:00:53;100289.45;;;30.55;28.45
59686;BME280;45554;51.096;16.976;2022-07-29T12:03:25;100283.70;;;30.65;28.40
59686;BME280;45554;51.096;16.976;2022-07-29T12:06:10;100282.34;;;30.67;28.23
59686;BME280;45554;51.096;16.976;2022-07-29T12:08:41;100280.34;;;30.58;28.29
59686;BME280;45554;51.096;16.976;2022-07-29T12:11:18;100283.29;;;30.44;28.24
59686;BME280;45554;51.096;16.976;2022-07-29T12:13:48;100279.45;;;30.49;28.59
59686;BME280;45554;51.096;16.976;2022-07-29T12:16:17;100282.27;;;30.62;28.38
59686;BME280;45554;51.096;16.976;2022-07-29T12:19:00;100274.84;;;30.68;28.30
59686;BME280;45554;51.096;16.976;2022-07-29T12:21:44;100272.10;;;30.90;28.49
59686;BME280;45554;51.096;16.976;2022-07-29T12:24:23;100271.60;;;30.96;28.05
59686;BME280;45554;51.096;16.976;2022-07-29T12:26:59;100271.95;;;30.92;28.22
59686;BME280;45554;51.096;16.976;2022-07-29T12:29:29;100263.82;;;30.93;28.01
59686;BME280;45554;51.096;16.976;2022-07-29T12:32:02;100260.73;;;30.77;27.91
59686;BME280;45554;51.096;16.976;2022-07-29T12:34:32;100253.53;;;30.64;28.20
59686;BME280;45554;51.096;16.976;2022-07-29T12:37:01;100253.17;;;30.58;28.14
59686;BME280;45554;51.096;16.976;2022-07-29T12:39:30;100257.50;;;30.61;28.42
59686;BME280;45554;51.096;16.976;2022-07-29T12:41:59;100254.08;;;30.70;28.46
59686;BME280;45554;51.096;16.976;2022-07-29T12:44:47;100248.90;;;30.78;28.36
59686;BME280;45554;51.096;16.976;2022-07-29T12:47:17;100246.14;;;30.89;28.26
59686;BME280;45554;51.096;16.976;2022-07-29T12:49:46;100238.38;;;30.93;28.19
59686;BME280;45554;51.096;16.976;2022-07-29T12:52:30;100239.88;;;30.99;28.21
59686;BME280;45554;51.096;16.976;2022-07-29T12:54:59;100239.25;;;30.99;28.05
59686;BME280;45554;51.096;16.976;2022-07-29T12:57:27;100238.08;;;31.05;28.15
59686;BME280;45554;51.096;16.976;2022-07-29T13:00:05;100238.16;;;31.21;28.15
59686;BME280;45554;51.096;16.976;2022-07-29T13:02:37;100233.81;;;31.44;27.82
59686;BME280;45554;51.096;16.976;2022-07-29T13:05:09;100231.23;;;31.59;27.78
59686;BME280;45554;51.096;16.976;2022-07-29T13:07:38;100225.02;;;31.81;27.79
59686;BME280;45554;51.096;16.976;2022-07-29T13:10:22;100224.49;;;32.00;27.12
59686;BME280;45554;51.096;16.976;2022-07-29T13:13:14;100221.28;;;32.06;27.28
59686;BME280;45554;51.096;16.976;2022-07-29T13:15:46;100218.27;;;32.07;26.96
59686;BME280;45554;51.096;16.976;2022-07-29T13:18:34;100216.95;;;31.99;27.07
59686;BME280;45554;51.096;16.976;2022-07-29T13:21:15;100218.75;;;31.91;26.94
59686;BME280;45554;51.096;16.976;2022-07-29T13:23:45;100216.92;;;31.78;27.09
59686;BME280;45554;51.096;16.976;2022-07-29T13:26:13;100215.79;;;31.72;27.24
59686;BME280;45554;51.096;16.976;2022-07-29T13:28:43;100212.95;;;31.68;27.28
59686;BME280;45554;51.096;16.976;2022-07-29T13:31:12;100215.13;;;31.60;27.41
59686;BME280;45554;51.096;16.976;2022-07-29T13:33:40;100209.69;;;31.69;27.51
59686;BME280;45554;51.096;16.976;2022-07-29T13:36:07;100206.34;;;31.72;27.30
59686;BME280;45554;51.096;16.976;2022-07-29T13:38:35;100202.02;;;31.67;27.30
59686;BME280;45554;51.096;16.976;2022-07-29T13:41:04;100194.36;;;31.55;27.20
59686;BME280;45554;51.096;16.976;2022-07-29T13:43:32;100194.89;;;31.43;27.25
59686;BME280;45554;51.096;16.976;2022-07-29T13:46:00;100198.14;;;31.31;27.45
59686;BME280;45554;51.096;16.976;2022-07-29T13:48:28;100200.10;;;31.21;27.72
59686;BME280;45554;51.096;16.976;2022-07-29T13:50:56;100204.35;;;31.22;27.89